Terminal Aerodrome Forecast
Issued by NWS

Home | Current Version | Previous Version | Text Only | Print | Product List | Glossary Off
Versions: 1 2 3 4 5 6 7 8 9 10 11 12 13 14 15 16 17 18 19 20 21

000
FTUS43 KABR 292043 AAA
TAFPIR
TAF AMD
KPIR 292043Z 2921/3018 18009KT P6SM SKC
     FM300000 15008KT P6SM SKC
      TEMPO 3010/3014 2SM BR
     FM301400 18015KT P6SM SKC=

USA.gov is the U.S. government's official web portal to all federal, state and local government web resources and services.